createdAt,value
2023-01-20T00:01:39.389Z,2.90
2023-01-20T00:04:06.436Z,2.90
2023-01-20T00:06:33.453Z,2.84
2023-01-20T00:09:02.591Z,2.81
2023-01-20T00:11:30.177Z,2.73
2023-01-20T00:13:59.872Z,2.75
2023-01-20T00:16:27.425Z,2.75
2023-01-20T00:18:55.002Z,2.74
2023-01-20T00:21:22.456Z,2.73
2023-01-20T00:23:50.256Z,2.69
2023-01-20T00:26:21.140Z,2.72
2023-01-20T00:28:48.674Z,2.73
2023-01-20T00:31:22.776Z,2.71
2023-01-20T00:33:51.442Z,2.66
2023-01-20T00:36:20.739Z,2.67
2023-01-20T00:38:48.421Z,2.62
2023-01-20T00:41:15.749Z,2.61
2023-01-20T00:43:43.099Z,2.61
2023-01-20T00:46:10.497Z,2.58
2023-01-20T00:48:37.460Z,2.59
2023-01-20T00:51:05.807Z,2.61
2023-01-20T00:53:32.874Z,2.63
2023-01-20T00:56:00.067Z,2.63
2023-01-20T00:58:27.174Z,2.60
2023-01-20T01:00:56.041Z,2.58
2023-01-20T01:03:23.268Z,2.61
2023-01-20T01:05:50.315Z,2.61
2023-01-20T01:08:17.349Z,2.55
2023-01-20T01:10:44.142Z,2.57
2023-01-20T01:13:11.505Z,2.54
2023-01-20T01:15:38.314Z,2.51
2023-01-20T01:18:05.272Z,2.53
2023-01-20T01:20:32.226Z,2.48
2023-01-20T01:22:59.048Z,2.41
2023-01-20T01:25:25.935Z,2.39
2023-01-20T01:27:52.767Z,2.33
2023-01-20T01:30:19.723Z,2.33
2023-01-20T01:32:47.975Z,2.35
2023-01-20T01:35:15.208Z,2.31
2023-01-20T01:37:42.274Z,2.34
2023-01-20T01:40:10.347Z,2.25
2023-01-20T01:42:37.737Z,2.25
2023-01-20T01:45:10.664Z,2.17
2023-01-20T01:47:45.564Z,2.10
2023-01-20T01:50:19.661Z,2.10
2023-01-20T01:52:50.864Z,2.07
2023-01-20T01:55:19.598Z,2.06
2023-01-20T01:57:48.112Z,2.04
2023-01-20T02:00:15.339Z,2.06
2023-01-20T02:02:44.126Z,2.07
2023-01-20T02:05:13.851Z,2.08
2023-01-20T02:07:44.931Z,2.05
2023-01-20T02:10:13.141Z,2.06
2023-01-20T02:12:41.738Z,2.07
2023-01-20T02:15:09.497Z,2.02
2023-01-20T02:18:12.649Z,1.99
2023-01-20T02:21:21.908Z,1.99
2023-01-20T02:24:21.473Z,2.00
2023-01-20T02:27:05.147Z,1.94
2023-01-20T02:30:01.691Z,1.87
2023-01-20T02:32:50.604Z,1.90
2023-01-20T02:35:40.480Z,1.95
2023-01-20T02:38:28.505Z,2.03
2023-01-20T02:41:16.091Z,2.07
2023-01-20T02:44:23.101Z,2.11
2023-01-20T02:47:02.651Z,2.15
2023-01-20T02:50:04.264Z,2.12
2023-01-20T02:52:44.347Z,2.16
2023-01-20T02:55:22.418Z,2.20
2023-01-20T02:57:56.403Z,2.15
2023-01-20T03:00:55.804Z,2.18
2023-01-20T03:03:35.971Z,2.15
2023-01-20T03:06:10.041Z,1.80
2023-01-20T03:08:39.900Z,2.00
2023-01-20T03:11:09.205Z,1.98
2023-01-20T03:13:49.055Z,1.95
2023-01-20T03:16:22.913Z,1.97
2023-01-20T03:18:50.974Z,1.95
2023-01-20T03:21:18.507Z,1.94
2023-01-20T03:23:49.702Z,1.98
2023-01-20T03:26:19.275Z,1.98
2023-01-20T03:28:48.790Z,1.94
2023-01-20T03:31:31.079Z,1.93
2023-01-20T03:34:00.871Z,1.84
2023-01-20T03:36:30.199Z,1.76
2023-01-20T03:38:58.522Z,1.75
2023-01-20T03:41:51.383Z,1.69
2023-01-20T03:44:37.681Z,1.67
2023-01-20T03:47:17.606Z,1.63
2023-01-20T03:50:09.163Z,1.63
2023-01-20T03:52:54.252Z,1.61
2023-01-20T03:55:34.414Z,1.60
2023-01-20T03:58:15.741Z,1.57
2023-01-20T04:00:49.646Z,1.52
2023-01-20T04:03:27.154Z,1.44
2023-01-20T04:05:56.278Z,1.41
2023-01-20T04:08:26.763Z,1.38
2023-01-20T04:10:55.574Z,1.33
2023-01-20T04:13:22.422Z,1.34
2023-01-20T04:15:50.213Z,1.37
2023-01-20T04:18:24.214Z,1.42
2023-01-20T04:20:57.856Z,1.50
2023-01-20T04:23:28.631Z,1.47
2023-01-20T04:25:55.484Z,1.35
2023-01-20T04:28:22.395Z,1.32
2023-01-20T04:30:49.365Z,1.27
2023-01-20T04:33:16.307Z,1.22
2023-01-20T04:35:43.209Z,1.23
2023-01-20T04:38:10.075Z,1.24
2023-01-20T04:40:36.992Z,1.25
2023-01-20T04:43:04.085Z,1.28
2023-01-20T04:45:30.955Z,1.29
2023-01-20T04:47:57.860Z,1.28
2023-01-20T04:50:24.725Z,1.29
2023-01-20T04:52:55.750Z,1.28
2023-01-20T04:55:22.707Z,1.33
2023-01-20T04:57:49.543Z,1.34
2023-01-20T05:00:20.020Z,1.35
2023-01-20T05:02:47.656Z,1.36
2023-01-20T05:05:14.906Z,1.33
2023-01-20T05:07:41.926Z,1.31
2023-01-20T05:10:09.741Z,1.29
2023-01-20T05:12:36.575Z,1.30
2023-01-20T05:15:03.659Z,1.28
2023-01-20T05:17:30.640Z,1.30
2023-01-20T05:19:57.453Z,1.18
2023-01-20T05:22:24.358Z,1.13
2023-01-20T05:24:51.149Z,1.02
2023-01-20T05:27:18.020Z,0.97
2023-01-20T05:29:44.954Z,0.95
2023-01-20T05:32:11.897Z,0.99
2023-01-20T05:34:38.763Z,1.02
2023-01-20T05:37:05.650Z,1.03
2023-01-20T05:39:32.489Z,1.05
2023-01-20T05:41:59.278Z,1.03
2023-01-20T05:44:26.250Z,1.06
2023-01-20T05:46:53.245Z,1.08
2023-01-20T05:49:20.054Z,1.13
2023-01-20T05:51:46.838Z,1.12
2023-01-20T05:54:13.661Z,1.14
2023-01-20T05:56:40.493Z,1.18
2023-01-20T05:59:08.170Z,1.16
2023-01-20T06:01:34.968Z,1.15
2023-01-20T06:04:01.914Z,1.15
2023-01-20T06:06:28.795Z,1.17
2023-01-20T06:08:55.644Z,1.20
2023-01-20T06:11:22.728Z,1.17
2023-01-20T06:13:49.868Z,1.19
2023-01-20T06:16:18.379Z,1.24
2023-01-20T06:18:45.839Z,1.28
2023-01-20T06:21:12.788Z,1.28
2023-01-20T06:23:39.688Z,1.32
2023-01-20T06:26:13.487Z,1.33
2023-01-20T06:28:41.147Z,1.31
2023-01-20T06:31:15.592Z,1.33
2023-01-20T06:33:43.575Z,1.39
2023-01-20T06:36:13.779Z,1.38
2023-01-20T06:38:40.774Z,1.31
2023-01-20T06:41:14.931Z,1.30
2023-01-20T06:43:42.056Z,1.26
2023-01-20T06:46:13.026Z,1.23
2023-01-20T06:48:40.635Z,1.25
2023-01-20T06:51:13.142Z,1.30
2023-01-20T06:53:40.316Z,1.34
2023-01-20T06:56:09.198Z,1.32
2023-01-20T06:58:36.012Z,1.31
2023-01-20T07:01:28.410Z,1.34
2023-01-20T07:03:55.694Z,1.39
2023-01-20T07:06:40.517Z,1.40
2023-01-20T07:09:10.734Z,1.40
2023-01-20T07:11:37.826Z,1.44
2023-01-20T07:14:05.970Z,1.43
2023-01-20T07:16:33.567Z,1.44
2023-01-20T07:19:00.646Z,1.39
2023-01-20T07:21:28.158Z,1.44
2023-01-20T07:23:55.085Z,1.49
2023-01-20T07:26:26.273Z,1.47
2023-01-20T07:28:53.418Z,1.56
2023-01-20T07:31:26.883Z,1.66
2023-01-20T07:33:57.598Z,1.75
2023-01-20T07:36:25.006Z,1.84
2023-01-20T07:38:53.200Z,2.00
2023-01-20T07:41:21.359Z,2.12
2023-01-20T07:43:50.905Z,2.22
2023-01-20T07:46:18.599Z,2.29
2023-01-20T07:48:45.800Z,2.41
2023-01-20T07:51:15.248Z,2.47
2023-01-20T07:53:48.184Z,2.64
2023-01-20T07:56:25.635Z,2.60
2023-01-20T07:58:54.115Z,2.68
2023-01-20T08:01:27.975Z,2.72
2023-01-20T08:03:55.572Z,2.73
2023-01-20T08:06:24.986Z,2.64
2023-01-20T08:08:52.644Z,2.47
2023-01-20T08:11:22.270Z,2.39
2023-01-20T08:13:49.569Z,2.51
2023-01-20T08:16:18.624Z,2.56
2023-01-20T08:18:46.536Z,2.69
2023-01-20T08:21:30.713Z,2.79
2023-01-20T08:23:59.536Z,2.78
2023-01-20T08:26:29.445Z,2.67
2023-01-20T08:29:06.407Z,2.93
2023-01-20T08:31:33.600Z,3.14
2023-01-20T08:34:00.553Z,3.28
2023-01-20T08:36:34.907Z,3.56
2023-01-20T08:39:04.793Z,3.78
2023-01-20T08:41:36.198Z,3.81
2023-01-20T08:44:05.914Z,3.86
2023-01-20T08:46:33.451Z,3.81
2023-01-20T08:49:00.809Z,3.68
2023-01-20T08:51:31.812Z,3.41
2023-01-20T08:53:59.287Z,3.62
2023-01-20T08:56:26.948Z,3.74
2023-01-20T08:58:54.069Z,3.94
2023-01-20T09:01:28.738Z,3.70
2023-01-20T09:04:05.369Z,4.06
2023-01-20T09:06:46.389Z,3.86
2023-01-20T09:09:15.792Z,3.84
2023-01-20T09:11:50.518Z,3.96
2023-01-20T09:14:22.963Z,3.62
2023-01-20T09:16:50.643Z,3.64
2023-01-20T09:19:17.801Z,3.76
2023-01-20T09:21:44.897Z,3.95
2023-01-20T09:24:12.020Z,3.91
2023-01-20T09:26:39.056Z,3.85
2023-01-20T09:29:12.256Z,3.76
2023-01-20T09:31:59.030Z,3.52
2023-01-20T09:34:29.365Z,3.80
2023-01-20T09:37:19.650Z,4.01
2023-01-20T09:40:06.376Z,3.98
2023-01-20T09:43:23.965Z,4.53
2023-01-20T09:46:10.592Z,4.41
2023-01-20T09:49:07.357Z,4.42
2023-01-20T09:52:30.891Z,4.93
2023-01-20T09:55:07.882Z,4.91
2023-01-20T09:57:40.383Z,5.02
2023-01-20T10:00:20.460Z,5.02
2023-01-20T10:02:53.885Z,5.24
2023-01-20T10:05:26.939Z,4.71
2023-01-20T10:07:59.001Z,4.31
2023-01-20T10:10:40.990Z,4.49
2023-01-20T10:13:44.087Z,4.18
2023-01-20T10:16:18.801Z,4.27
2023-01-20T10:18:57.755Z,4.15
2023-01-20T10:22:05.147Z,4.15
2023-01-20T10:24:39.646Z,4.17
2023-01-20T10:27:06.511Z,4.20
2023-01-20T10:29:41.823Z,4.24
2023-01-20T10:32:23.723Z,4.03
2023-01-20T10:34:56.672Z,4.12
2023-01-20T10:37:24.475Z,4.07
2023-01-20T10:40:10.331Z,4.13
2023-01-20T10:42:37.145Z,4.13
2023-01-20T10:45:06.012Z,4.21
2023-01-20T10:47:55.791Z,4.48
2023-01-20T10:50:31.360Z,3.79
2023-01-20T10:53:30.266Z,4.10
2023-01-20T10:56:08.882Z,3.82
2023-01-20T10:58:40.925Z,4.10
2023-01-20T11:01:12.602Z,4.12
2023-01-20T11:03:45.597Z,3.96
2023-01-20T11:06:25.178Z,3.94
2023-01-20T11:08:52.712Z,3.93
2023-01-20T11:11:22.985Z,4.20
2023-01-20T11:13:51.822Z,4.00
2023-01-20T11:16:25.682Z,4.01
2023-01-20T11:19:06.053Z,4.26
2023-01-20T11:21:36.826Z,4.40
2023-01-20T11:24:31.878Z,4.81
2023-01-20T11:27:12.131Z,4.81
2023-01-20T11:29:49.986Z,4.89
2023-01-20T11:32:36.842Z,5.22
2023-01-20T11:35:21.242Z,5.08
2023-01-20T11:37:48.308Z,5.30
2023-01-20T11:40:29.123Z,5.61
2023-01-20T11:42:55.976Z,5.78
2023-01-20T11:45:34.641Z,6.12
2023-01-20T11:48:05.910Z,6.32
2023-01-20T11:50:37.332Z,6.21
2023-01-20T11:53:27.898Z,6.15
2023-01-20T11:55:58.753Z,5.84
2023-01-20T11:58:55.400Z,5.44
2023-01-20T12:01:58.179Z,6.14
2023-01-20T12:05:01.291Z,6.27
2023-01-20T12:07:45.029Z,5.67
2023-01-20T12:10:24.079Z,5.17
2023-01-20T12:13:05.945Z,3.95
2023-01-20T12:15:38.083Z,4.71
2023-01-20T12:18:19.512Z,4.36
2023-01-20T12:20:55.462Z,4.68
2023-01-20T12:23:46.073Z,5.03
2023-01-20T12:26:18.413Z,5.13
2023-01-20T12:29:19.485Z,5.34
2023-01-20T12:31:49.134Z,5.31
2023-01-20T12:34:38.924Z,4.92
2023-01-20T12:37:39.665Z,5.15
2023-01-20T12:40:42.216Z,4.64
2023-01-20T12:43:37.789Z,4.81
2023-01-20T12:46:56.813Z,5.05
2023-01-20T12:49:45.779Z,4.99
2023-01-20T12:53:05.524Z,4.24
2023-01-20T12:56:10.786Z,4.24
2023-01-20T12:59:23.874Z,4.43
2023-01-20T13:02:20.064Z,4.25
2023-01-20T13:05:17.032Z,4.23
2023-01-20T13:08:24.877Z,4.71
2023-01-20T13:11:43.589Z,4.26
2023-01-20T13:14:28.844Z,4.88
2023-01-20T13:17:18.683Z,4.65
2023-01-20T13:19:47.978Z,4.61
2023-01-20T13:22:23.062Z,4.45
2023-01-20T13:24:56.895Z,4.74
2023-01-20T13:27:34.741Z,4.79
2023-01-20T13:30:05.106Z,4.65
2023-01-20T13:32:37.925Z,4.78
2023-01-20T13:35:27.379Z,4.91
2023-01-20T13:38:00.138Z,4.49
2023-01-20T13:40:36.087Z,4.73
2023-01-20T13:43:04.276Z,4.37
2023-01-20T13:45:31.349Z,4.70
2023-01-20T13:48:06.985Z,4.65
2023-01-20T13:50:37.224Z,4.35
2023-01-20T13:53:09.934Z,4.84
2023-01-20T13:55:45.599Z,4.94
2023-01-20T13:58:22.279Z,4.90
2023-01-20T14:01:01.766Z,4.50
2023-01-20T14:03:38.147Z,4.20
2023-01-20T14:06:11.877Z,4.37
2023-01-20T14:08:50.766Z,4.19
2023-01-20T14:11:24.105Z,3.95
2023-01-20T14:13:59.038Z,3.98
2023-01-20T14:16:37.100Z,4.08
2023-01-20T14:19:34.221Z,4.00
2023-01-20T14:22:27.863Z,4.22
2023-01-20T14:25:00.785Z,4.26
2023-01-20T14:27:35.401Z,4.41
2023-01-20T14:30:26.590Z,4.25
2023-01-20T14:32:54.358Z,4.16
2023-01-20T14:35:33.606Z,4.00
2023-01-20T14:38:01.257Z,4.04
2023-01-20T14:40:35.337Z,4.09
2023-01-20T14:43:20.390Z,4.20
2023-01-20T14:45:51.515Z,4.10
2023-01-20T14:48:33.441Z,4.17
2023-01-20T14:51:04.142Z,3.97
2023-01-20T14:53:31.021Z,4.04
2023-01-20T14:56:09.705Z,4.08
2023-01-20T14:58:44.472Z,4.09
2023-01-20T15:01:22.709Z,3.97
2023-01-20T15:03:59.478Z,3.65
2023-01-20T15:06:26.841Z,3.47
2023-01-20T15:09:06.175Z,3.47
2023-01-20T15:11:34.334Z,3.60
2023-01-20T15:14:01.280Z,3.63
2023-01-20T15:16:37.006Z,3.74
2023-01-20T15:19:20.044Z,3.85
2023-01-20T15:21:51.169Z,3.77
2023-01-20T15:24:34.503Z,3.71
2023-01-20T15:27:02.718Z,3.65
2023-01-20T15:29:33.647Z,3.75
2023-01-20T15:32:08.787Z,3.79
2023-01-20T15:34:35.624Z,3.88
2023-01-20T15:37:02.551Z,3.83
2023-01-20T15:39:30.242Z,3.59
2023-01-20T15:41:58.145Z,3.75
2023-01-20T15:44:26.620Z,3.79
2023-01-20T15:46:57.368Z,3.78
2023-01-20T15:49:25.276Z,3.54
2023-01-20T15:51:52.613Z,3.70
2023-01-20T15:54:19.424Z,3.73
2023-01-20T15:56:46.286Z,3.73
2023-01-20T15:59:19.746Z,3.68
2023-01-20T16:01:50.368Z,3.65
2023-01-20T16:04:17.620Z,3.70
2023-01-20T16:06:44.874Z,3.72
2023-01-20T16:09:24.722Z,3.67
2023-01-20T16:11:52.035Z,3.67
2023-01-20T16:14:19.060Z,3.71
2023-01-20T16:16:45.913Z,3.75
2023-01-20T16:19:13.798Z,3.78
2023-01-20T16:21:41.355Z,3.79
2023-01-20T16:24:09.079Z,3.81
2023-01-20T16:26:36.084Z,3.73
2023-01-20T16:29:04.721Z,3.72
2023-01-20T16:31:33.317Z,3.72
2023-01-20T16:34:00.248Z,3.62
2023-01-20T16:36:27.103Z,3.63
2023-01-20T16:38:54.041Z,3.61
2023-01-20T16:41:27.977Z,3.57
2023-01-20T16:43:56.013Z,3.53
2023-01-20T16:46:32.697Z,3.44
2023-01-20T16:49:01.693Z,3.44
2023-01-20T16:51:30.343Z,3.43
2023-01-20T16:53:58.505Z,3.47
2023-01-20T16:56:31.404Z,3.46
2023-01-20T16:59:01.584Z,3.42
2023-01-20T17:01:30.038Z,3.40
2023-01-20T17:04:02.679Z,3.39
2023-01-20T17:06:33.567Z,3.41
2023-01-20T17:09:04.122Z,3.43
2023-01-20T17:11:37.982Z,3.47
2023-01-20T17:14:09.578Z,3.46
2023-01-20T17:16:37.915Z,3.45
2023-01-20T17:19:05.855Z,3.51
2023-01-20T17:21:37.746Z,3.54
2023-01-20T17:24:05.822Z,3.55
2023-01-20T17:26:33.386Z,3.56
2023-01-20T17:29:03.440Z,3.57
2023-01-20T17:31:36.615Z,3.55
2023-01-20T17:34:07.393Z,3.56
2023-01-20T17:36:35.004Z,3.54
2023-01-20T17:39:03.906Z,3.61
2023-01-20T17:41:31.068Z,3.63
2023-01-20T17:43:57.922Z,3.61
2023-01-20T17:46:28.936Z,3.53
2023-01-20T17:49:04.782Z,3.55
2023-01-20T17:51:31.645Z,3.57
2023-01-20T17:54:01.856Z,3.60
2023-01-20T17:56:30.413Z,3.58
2023-01-20T17:58:57.368Z,3.61
2023-01-20T18:01:27.912Z,3.62
2023-01-20T18:03:58.158Z,3.63
2023-01-20T18:06:26.905Z,3.53
2023-01-20T18:09:00.470Z,3.63
2023-01-20T18:11:30.965Z,3.50
2023-01-20T18:14:00.282Z,3.34
2023-01-20T18:16:31.067Z,3.54
2023-01-20T18:19:01.190Z,3.61
2023-01-20T18:21:37.097Z,3.50
2023-01-20T18:24:07.340Z,3.57
2023-01-20T18:26:37.487Z,3.33
2023-01-20T18:29:08.185Z,3.28
2023-01-20T18:31:35.914Z,3.35
2023-01-20T18:34:06.361Z,2.99
2023-01-20T18:36:39.892Z,3.07
2023-01-20T18:39:17.350Z,3.10
2023-01-20T18:41:44.737Z,3.18
2023-01-20T18:44:11.762Z,3.26
2023-01-20T18:46:38.789Z,3.39
2023-01-20T18:49:09.402Z,3.34
2023-01-20T18:51:36.632Z,3.32
2023-01-20T18:54:11.891Z,3.20
2023-01-20T18:56:39.364Z,3.42
2023-01-20T18:59:07.382Z,3.30
2023-01-20T19:01:37.893Z,3.19
2023-01-20T19:04:06.547Z,3.36
2023-01-20T19:06:40.669Z,3.40
2023-01-20T19:09:08.273Z,3.34
2023-01-20T19:11:39.585Z,3.32
2023-01-20T19:14:11.667Z,3.28
2023-01-20T19:16:42.112Z,3.34
2023-01-20T19:19:11.705Z,3.26
2023-01-20T19:21:38.815Z,3.34
2023-01-20T19:24:07.893Z,3.30
2023-01-20T19:26:38.899Z,3.32
2023-01-20T19:29:08.847Z,3.22
2023-01-20T19:31:39.359Z,3.30
2023-01-20T19:34:08.132Z,3.34
2023-01-20T19:36:35.776Z,3.33
2023-01-20T19:39:03.135Z,3.34
2023-01-20T19:41:35.925Z,3.17
2023-01-20T19:44:06.492Z,3.15
2023-01-20T19:46:36.627Z,3.26
2023-01-20T19:49:03.668Z,3.30
2023-01-20T19:51:31.423Z,3.20
2023-01-20T19:54:00.723Z,3.28
2023-01-20T19:56:31.792Z,3.21
2023-01-20T19:59:02.897Z,3.15
2023-01-20T20:01:36.799Z,3.20
2023-01-20T20:04:10.247Z,3.29
2023-01-20T20:06:48.552Z,3.36
2023-01-20T20:09:23.390Z,3.33
2023-01-20T20:11:50.451Z,3.34
2023-01-20T20:14:20.162Z,3.31
2023-01-20T20:16:47.679Z,3.26
2023-01-20T20:19:18.882Z,3.30
2023-01-20T20:21:46.274Z,3.02
2023-01-20T20:24:15.488Z,3.19
2023-01-20T20:26:44.525Z,3.15
2023-01-20T20:29:12.838Z,3.09
2023-01-20T20:31:40.493Z,3.12
2023-01-20T20:34:12.866Z,3.07
2023-01-20T20:36:40.052Z,3.09
2023-01-20T20:39:07.923Z,3.08
2023-01-20T20:41:36.588Z,3.02
2023-01-20T20:44:04.331Z,2.97
2023-01-20T20:46:31.620Z,2.74
2023-01-20T20:49:00.863Z,2.73
2023-01-20T20:51:33.995Z,2.59
2023-01-20T20:54:02.548Z,2.69
2023-01-20T20:56:33.541Z,2.70
2023-01-20T20:59:03.436Z,2.65
2023-01-20T21:01:34.553Z,2.59
2023-01-20T21:04:03.282Z,2.60
2023-01-20T21:06:31.273Z,2.42
2023-01-20T21:09:01.459Z,2.26
2023-01-20T21:11:29.177Z,2.22
2023-01-20T21:13:56.373Z,2.30
2023-01-20T21:16:24.748Z,2.32
2023-01-20T21:18:59.419Z,2.35
2023-01-20T21:21:28.690Z,2.36
2023-01-20T21:23:57.396Z,2.42
2023-01-20T21:26:29.603Z,2.51
2023-01-20T21:28:57.595Z,2.37
2023-01-20T21:31:26.812Z,2.36
2023-01-20T21:34:00.228Z,2.41
2023-01-20T21:36:29.477Z,2.54
2023-01-20T21:38:56.313Z,2.62
2023-01-20T21:41:23.244Z,2.65
2023-01-20T21:44:08.967Z,2.57
2023-01-20T21:46:40.612Z,2.57
2023-01-20T21:49:27.370Z,2.56
2023-01-20T21:52:14.627Z,2.52
2023-01-20T21:54:42.042Z,2.54
2023-01-20T21:57:09.237Z,2.52
2023-01-20T21:59:36.347Z,2.48
2023-01-20T22:02:03.197Z,2.43
2023-01-20T22:04:30.095Z,2.52
2023-01-20T22:06:56.987Z,2.53
2023-01-20T22:09:23.806Z,2.46
2023-01-20T22:11:50.727Z,2.34
2023-01-20T22:14:17.903Z,2.38
2023-01-20T22:16:44.850Z,2.24
2023-01-20T22:19:16.063Z,2.34
2023-01-20T22:21:43.090Z,2.38
2023-01-20T22:24:11.034Z,2.20
2023-01-20T22:26:39.033Z,2.08
2023-01-20T22:29:06.328Z,2.16
2023-01-20T22:31:34.357Z,2.22
2023-01-20T22:34:04.418Z,2.25
2023-01-20T22:36:32.083Z,2.24
2023-01-20T22:38:58.963Z,2.20
2023-01-20T22:41:26.264Z,2.14
2023-01-20T22:43:53.589Z,2.05
2023-01-20T22:46:22.676Z,2.05
2023-01-20T22:48:49.648Z,2.05
2023-01-20T22:51:25.511Z,2.15
2023-01-20T22:54:00.713Z,2.22
2023-01-20T22:56:32.440Z,2.19
2023-01-20T22:59:00.200Z,2.28
2023-01-20T23:01:30.919Z,2.12
2023-01-20T23:04:00.692Z,2.23
2023-01-20T23:06:30.554Z,2.14
2023-01-20T23:08:57.376Z,2.22
2023-01-20T23:11:24.326Z,2.26
2023-01-20T23:13:52.335Z,2.08
2023-01-20T23:16:24.872Z,2.17
2023-01-20T23:18:52.034Z,2.13
2023-01-20T23:21:20.125Z,2.25
2023-01-20T23:23:54.115Z,2.27
2023-01-20T23:26:24.324Z,2.16
2023-01-20T23:28:52.787Z,2.25
2023-01-20T23:31:20.598Z,2.20
2023-01-20T23:33:47.734Z,2.17
2023-01-20T23:36:24.487Z,2.27
2023-01-20T23:38:54.534Z,2.25
2023-01-20T23:41:21.528Z,2.15
2023-01-20T23:43:48.692Z,2.24
2023-01-20T23:46:15.533Z,2.19
2023-01-20T23:48:44.859Z,2.22
2023-01-20T23:51:11.729Z,2.27
2023-01-20T23:53:40.424Z,2.13
2023-01-20T23:56:24.087Z,2.13
2023-01-20T23:58:51.812Z,2.24
